Time;durP1;ratioP1;P1;durP2;ratioP2;P2;SDS_P1;SDS_P2;PMS_P1;PMS_P2;Temp;Humidity;BMP_temperature;BMP_pressure;BME280_temperature;BME280_humidity;BME280_pressure;Samples;Min_cycle;Max_cycle;Signal;HPM_P1;HPM_P2
2022/12/08 00:00:23;;;;;;;;;;;13.30;93.60;;;;;;5032651;28;19925;-66
2022/12/08 00:02:48;;;;;;;;;;;13.40;93.70;;;;;;5065593;28;19929;-66
2022/12/08 00:10:43;;;;;;;;;;;13.40;93.70;;;;;;5033847;28;19976;-65
2022/12/08 00:13:09;;;;;;;;;;;13.40;93.70;;;;;;5016895;28;19925;-64
2022/12/08 00:15:34;;;;;;;;;;;13.40;93.60;;;;;;5031232;28;20007;-63
2022/12/08 00:18:00;;;;;;;;;;;13.60;93.80;;;;;;5031346;28;19925;-64
2022/12/08 00:20:26;;;;;;;;;;;13.40;93.70;;;;;;5063482;28;19932;-65
2022/12/08 00:22:51;;;;;;;;;;;13.60;93.80;;;;;;5015463;28;20465;-65
2022/12/08 00:25:17;;;;;;;;;;;13.40;93.70;;;;;;5032882;28;19964;-65
2022/12/08 00:27:43;;;;;;;;;;;13.50;93.70;;;;;;5030729;28;19952;-65
2022/12/08 00:30:08;;;;;;;;;;;13.30;93.70;;;;;;5031709;28;20008;-64
2022/12/08 00:32:35;;;;;;;;;;;13.60;93.80;;;;;;5030545;28;19988;-63
2022/12/08 00:35:01;;;;;;;;;;;;;;;;;;5034204;28;20299;-64
2022/12/08 00:37:27;;;;;;;;;;;;;;;;;;5032699;28;19977;-64
2022/12/08 00:39:53;;;;;;;;;;;13.30;93.70;;;;;;5026153;28;19976;-63
2022/12/08 00:42:18;;;;;;;;;;;13.60;93.80;;;;;;5034196;28;19931;-63
2022/12/08 00:44:45;;;;;;;;;;;13.30;93.70;;;;;;5031848;28;19972;-63
2022/12/08 00:47:11;;;;;;;;;;;13.10;93.70;;;;;;5033489;28;19925;-63
2022/12/08 00:49:36;;;;;;;;;;;13.20;93.70;;;;;;5028936;28;19929;-65
2022/12/08 00:52:02;;;;;;;;;;;13.50;93.80;;;;;;5034177;28;19959;-64
2022/12/08 00:54:28;;;;;;;;;;;13.10;93.60;;;;;;5032369;28;19925;-63
2022/12/08 00:56:53;;;;;;;;;;;13.30;93.60;;;;;;5027887;28;20318;-63
2022/12/08 00:59:19;;;;;;;;;;;13.20;93.60;;;;;;5032146;28;19932;-65
2022/12/08 01:01:44;;;;;;;;;;;13.20;93.70;;;;;;5031731;28;19925;-65
2022/12/08 01:04:11;;;;;;;;;;;13.40;93.70;;;;;;5033619;28;19925;-63
2022/12/08 01:06:36;;;;;;;;;;;13.20;93.60;;;;;;5031407;28;19925;-63
2022/12/08 01:09:03;;;;;;;;;;;13.30;93.60;;;;;;5032490;28;19925;-64
2022/12/08 01:11:28;;;;;;;;;;;13.40;93.60;;;;;;5032037;28;19933;-65
2022/12/08 01:13:54;;;;;;;;;;;13.40;93.60;;;;;;5018696;28;20020;-63
2022/12/08 01:16:29;;;;;;;;;;;13.10;93.60;;;;;;5030707;28;19932;-64
2022/12/08 01:18:55;;;;;;;;;;;13.30;93.60;;;;;;5002234;28;19932;-64
2022/12/08 01:21:21;;;;;;;;;;;13.10;93.50;;;;;;5033293;28;19933;-63
2022/12/08 01:23:47;;;;;;;;;;;;;;;;;;5037670;28;20421;-64
2022/12/08 01:26:13;;;;;;;;;;;13.30;93.60;;;;;;5036871;28;20008;-64
2022/12/08 01:28:39;;;;;;;;;;;13.60;93.70;;;;;;5034340;28;19926;-67
2022/12/08 01:31:05;;;;;;;;;;;;;;;;;;5016506;28;19929;-64
2022/12/08 01:33:30;;;;;;;;;;;13.30;93.60;;;;;;5068553;28;20115;-63
2022/12/08 01:35:58;;;;;;;;;;;13.00;93.50;;;;;;5036511;28;19925;-63
2022/12/08 01:38:24;;;;;;;;;;;;;;;;;;5050211;28;19925;-64
2022/12/08 01:40:50;;;;;;;;;;;13.30;93.50;;;;;;5037447;28;19994;-63
2022/12/08 01:43:16;;;;;;;;;;;13.40;93.50;;;;;;5034126;28;19928;-63
2022/12/08 01:45:42;;;;;;;;;;;13.20;93.50;;;;;;5037203;28;20278;-64
2022/12/08 01:48:09;;;;;;;;;;;13.30;93.50;;;;;;5024033;28;19940;-62
2022/12/08 01:50:35;;;;;;;;;;;13.00;93.40;;;;;;5019472;28;19964;-63
2022/12/08 01:53:01;;;;;;;;;;;13.20;93.40;;;;;;5033305;28;19999;-63
2022/12/08 01:55:30;;;;;;;;;;;13.30;93.40;;;;;;5013993;28;19925;-64
2022/12/08 01:57:58;;;;;;;;;;;13.30;93.50;;;;;;5018019;28;19926;-63
2022/12/08 02:00:23;;;;;;;;;;;13.00;93.40;;;;;;5051072;28;19932;-63
2022/12/08 02:02:59;;;;;;;;;;;13.10;93.40;;;;;;5033426;28;19925;-63
2022/12/08 02:05:30;;;;;;;;;;;13.40;93.50;;;;;;5033807;28;19934;-63
2022/12/08 02:07:56;;;;;;;;;;;13.00;93.30;;;;;;5032758;28;19925;-64
2022/12/08 02:10:22;;;;;;;;;;;13.20;93.40;;;;;;5035287;28;19987;-64
2022/12/08 02:12:48;;;;;;;;;;;13.20;93.40;;;;;;5035512;28;19925;-63
2022/12/08 02:15:13;;;;;;;;;;;13.40;93.50;;;;;;5066266;28;20031;-64
2022/12/08 02:17:51;;;;;;;;;;;13.10;93.40;;;;;;5033540;28;20034;-63
2022/12/08 02:20:35;;;;;;;;;;;13.20;93.50;;;;;;5031812;28;19988;-63
2022/12/08 02:23:04;;;;;;;;;;;13.30;93.50;;;;;;5033044;28;19929;-63
2022/12/08 02:25:39;;;;;;;;;;;13.50;93.60;;;;;;5031972;28;19931;-62
2022/12/08 02:28:11;;;;;;;;;;;13.20;93.40;;;;;;5031056;28;20006;-63
2022/12/08 02:30:49;;;;;;;;;;;12.90;93.40;;;;;;5035373;28;19925;-66
2022/12/08 02:33:38;;;;;;;;;;;13.30;93.50;;;;;;5014523;28;20299;-64
2022/12/08 02:36:06;;;;;;;;;;;13.40;93.60;;;;;;5024261;28;20008;-63
2022/12/08 02:38:50;;;;;;;;;;;13.30;93.60;;;;;;5017780;28;19925;-64
2022/12/08 02:41:18;;;;;;;;;;;13.10;93.60;;;;;;5035613;28;20291;-63
2022/12/08 02:43:46;;;;;;;;;;;13.10;93.50;;;;;;5032892;28;19925;-64
2022/12/08 02:46:13;;;;;;;;;;;13.10;93.50;;;;;;5013251;28;19967;-63
2022/12/08 02:48:39;;;;;;;;;;;13.30;93.60;;;;;;5061860;28;19975;-63
2022/12/08 02:51:04;;;;;;;;;;;12.90;93.50;;;;;;5034781;28;20030;-64
2022/12/08 02:53:31;;;;;;;;;;;13.30;93.60;;;;;;5035220;28;19948;-64
2022/12/08 02:56:07;;;;;;;;;;;13.40;93.50;;;;;;5023289;28;19952;-65
2022/12/08 02:58:49;;;;;;;;;;;13.40;93.50;;;;;;5045177;28;19926;-65
2022/12/08 03:01:33;;;;;;;;;;;13.20;93.50;;;;;;5050745;28;20023;-63
2022/12/08 03:04:02;;;;;;;;;;;13.00;93.50;;;;;;5067137;28;19951;-63
2022/12/08 03:06:53;;;;;;;;;;;13.20;93.60;;;;;;5034587;28;20497;-63
2022/12/08 03:09:38;;;;;;;;;;;13.10;93.50;;;;;;5035281;28;19925;-64
2022/12/08 03:12:15;;;;;;;;;;;13.20;93.60;;;;;;5027360;28;20299;-65
2022/12/08 03:14:42;;;;;;;;;;;13.20;93.60;;;;;;5001583;28;20015;-63
2022/12/08 03:17:08;;;;;;;;;;;13.00;93.50;;;;;;5032541;28;20391;-63
2022/12/08 03:19:34;;;;;;;;;;;13.10;93.50;;;;;;5033776;28;19971;-64
2022/12/08 03:22:03;;;;;;;;;;;13.30;93.60;;;;;;5034315;28;19925;-64
2022/12/08 03:24:30;;;;;;;;;;;13.10;93.50;;;;;;5029545;28;20004;-64
2022/12/08 03:26:56;;;;;;;;;;;;;;;;;;5025144;28;19975;-64
2022/12/08 03:29:21;;;;;;;;;;;13.10;93.40;;;;;;5029918;28;19964;-64
2022/12/08 03:31:47;;;;;;;;;;;;;;;;;;5017840;28;19932;-63
2022/12/08 03:34:13;;;;;;;;;;;;;;;;;;5031881;28;19932;-64
2022/12/08 03:36:39;;;;;;;;;;;13.10;93.50;;;;;;5033962;28;20019;-63
2022/12/08 03:39:05;;;;;;;;;;;12.80;93.40;;;;;;5029915;28;20017;-63
2022/12/08 03:41:30;;;;;;;;;;;12.90;93.40;;;;;;5035316;28;19936;-63
2022/12/08 03:43:58;;;;;;;;;;;13.10;93.40;;;;;;5034325;28;19925;-64
2022/12/08 03:46:24;;;;;;;;;;;12.90;93.30;;;;;;5028878;28;19925;-63
2022/12/08 03:48:50;;;;;;;;;;;13.10;93.40;;;;;;5036361;28;19925;-63
2022/12/08 03:51:16;;;;;;;;;;;13.20;93.40;;;;;;5067169;28;19928;-63
2022/12/08 03:53:41;;;;;;;;;;;13.30;93.50;;;;;;5049309;28;20394;-63
2022/12/08 03:56:14;;;;;;;;;;;13.20;93.50;;;;;;5048544;28;20303;-63
2022/12/08 03:58:40;;;;;;;;;;;13.10;93.50;;;;;;5030293;28;19949;-64
2022/12/08 04:01:06;;;;;;;;;;;13.10;93.50;;;;;;5033940;28;19933;-64
2022/12/08 04:03:32;;;;;;;;;;;13.10;93.60;;;;;;5019167;28;19936;-64
2022/12/08 04:05:57;;;;;;;;;;;13.30;93.60;;;;;;5018312;28;20441;-63
2022/12/08 04:08:23;;;;;;;;;;;13.20;93.60;;;;;;5034867;28;19926;-63
2022/12/08 04:10:49;;;;;;;;;;;12.90;93.50;;;;;;5032365;28;20390;-63
2022/12/08 04:13:14;;;;;;;;;;;12.90;93.50;;;;;;5015730;28;20020;-64
2022/12/08 04:15:40;;;;;;;;;;;;;;;;;;5032924;28;19948;-64
2022/12/08 04:18:06;;;;;;;;;;;13.00;93.40;;;;;;5031492;28;20036;-63
2022/12/08 04:20:31;;;;;;;;;;;13.00;93.40;;;;;;5027298;28;19925;-63
2022/12/08 04:22:57;;;;;;;;;;;13.10;93.40;;;;;;5061796;28;20013;-63
2022/12/08 04:25:23;;;;;;;;;;;12.90;93.40;;;;;;5034272;28;19925;-64
2022/12/08 04:27:48;;;;;;;;;;;13.00;93.40;;;;;;5030814;28;20011;-63
2022/12/08 04:30:14;;;;;;;;;;;13.00;93.40;;;;;;5032092;28;19925;-63
2022/12/08 04:32:40;;;;;;;;;;;13.20;93.40;;;;;;5033795;28;19948;-63
2022/12/08 04:35:05;;;;;;;;;;;13.00;93.30;;;;;;5029044;28;19932;-63
2022/12/08 04:37:31;;;;;;;;;;;13.10;93.40;;;;;;5018817;28;20407;-64
2022/12/08 04:39:57;;;;;;;;;;;13.00;93.40;;;;;;5015754;28;19996;-63
2022/12/08 04:42:22;;;;;;;;;;;13.20;93.40;;;;;;5032087;28;19925;-64
2022/12/08 04:44:48;;;;;;;;;;;12.90;93.40;;;;;;5032769;28;19926;-63
2022/12/08 04:47:13;;;;;;;;;;;13.10;93.40;;;;;;5033960;28;19925;-64
2022/12/08 04:49:39;;;;;;;;;;;13.00;93.40;;;;;;5065386;28;20330;-63
2022/12/08 04:52:05;;;;;;;;;;;12.90;93.10;;;;;;5029006;28;20444;-62
2022/12/08 04:54:30;;;;;;;;;;;12.80;93.30;;;;;;5031272;28;19983;-64
2022/12/08 04:56:56;;;;;;;;;;;13.00;93.40;;;;;;5031628;28;19943;-64
2022/12/08 04:59:21;;;;;;;;;;;13.00;93.40;;;;;;5034537;28;19926;-63
2022/12/08 05:01:47;;;;;;;;;;;13.00;93.30;;;;;;5029047;28;19925;-63
2022/12/08 05:04:13;;;;;;;;;;;12.80;93.30;;;;;;5033212;28;19929;-63
2022/12/08 05:06:38;;;;;;;;;;;13.00;93.30;;;;;;5031084;28;19922;-63
2022/12/08 05:09:04;;;;;;;;;;;12.80;93.40;;;;;;5033669;28;20283;-63
2022/12/08 05:11:29;;;;;;;;;;;12.80;93.30;;;;;;5026295;28;20059;-64
2022/12/08 05:13:55;;;;;;;;;;;13.00;93.40;;;;;;5032431;28;20387;-63
2022/12/08 05:16:21;;;;;;;;;;;13.10;93.40;;;;;;5030304;28;19932;-63
2022/12/08 05:18:46;;;;;;;;;;;12.80;93.30;;;;;;5032460;28;19926;-63
2022/12/08 05:21:12;;;;;;;;;;;13.00;93.40;;;;;;5032357;28;19932;-65
2022/12/08 05:23:38;;;;;;;;;;;13.10;93.40;;;;;;5026975;28;19926;-63
2022/12/08 05:26:03;;;;;;;;;;;12.80;93.30;;;;;;5014729;28;20361;-63
2022/12/08 05:28:29;;;;;;;;;;;12.80;93.30;;;;;;5021453;28;19933;-65
2022/12/08 05:30:54;;;;;;;;;;;12.80;93.40;;;;;;5033059;28;19921;-65
2022/12/08 05:33:20;;;;;;;;;;;13.00;93.40;;;;;;5065247;28;19925;-64
2022/12/08 05:35:46;;;;;;;;;;;12.90;93.40;;;;;;5032283;28;20322;-63
2022/12/08 05:38:11;;;;;;;;;;;13.10;93.50;;;;;;5030815;28;19972;-63
2022/12/08 05:40:38;;;;;;;;;;;12.60;93.00;;;;;;5032027;28;19926;-64
2022/12/08 05:43:03;;;;;;;;;;;12.80;93.30;;;;;;5028815;28;19936;-65
2022/12/08 05:45:29;;;;;;;;;;;12.90;93.40;;;;;;5050381;28;19925;-63
2022/12/08 05:47:55;;;;;;;;;;;;;;;;;;5016460;28;19933;-64
2022/12/08 05:50:21;;;;;;;;;;;13.00;93.50;;;;;;5031892;28;19941;-65
2022/12/08 05:52:46;;;;;;;;;;;12.90;93.40;;;;;;5030958;28;20045;-62
2022/12/08 05:55:12;;;;;;;;;;;12.90;93.40;;;;;;5064115;28;19925;-63
2022/12/08 05:57:37;;;;;;;;;;;12.70;93.40;;;;;;5032194;28;19925;-62
2022/12/08 06:00:04;;;;;;;;;;;12.90;93.40;;;;;;5033254;28;19931;-63
2022/12/08 06:02:29;;;;;;;;;;;13.10;93.40;;;;;;5026726;28;20012;-62
2022/12/08 06:04:55;;;;;;;;;;;12.90;93.40;;;;;;5036954;28;19968;-62
2022/12/08 06:07:20;;;;;;;;;;;13.10;93.40;;;;;;5036185;28;19932;-62
2022/12/08 06:09:46;;;;;;;;;;;12.80;93.40;;;;;;5037172;28;20432;-62
2022/12/08 06:12:12;;;;;;;;;;;;;;;;;;5036350;28;19948;-63
2022/12/08 06:14:38;;;;;;;;;;;13.20;93.50;;;;;;5034319;28;19933;-63
2022/12/08 06:17:04;;;;;;;;;;;12.90;93.40;;;;;;5033525;28;20287;-63
2022/12/08 06:19:29;;;;;;;;;;;13.10;93.40;;;;;;5025804;28;19932;-63
2022/12/08 06:21:55;;;;;;;;;;;12.90;93.30;;;;;;5017305;28;19932;-64
2022/12/08 06:24:20;;;;;;;;;;;12.90;93.40;;;;;;5065851;28;19933;-62
2022/12/08 06:26:46;;;;;;;;;;;13.00;93.40;;;;;;5034380;28;19925;-63
2022/12/08 06:29:12;;;;;;;;;;;12.90;93.40;;;;;;5036832;28;19978;-64
2022/12/08 06:31:38;;;;;;;;;;;12.90;93.40;;;;;;5035487;28;20390;-63
2022/12/08 06:34:04;;;;;;;;;;;12.70;93.40;;;;;;5036199;28;19925;-62
2022/12/08 06:36:30;;;;;;;;;;;13.20;93.40;;;;;;5056890;28;19933;-63
2022/12/08 06:38:56;;;;;;;;;;;13.00;93.40;;;;;;5017492;28;19932;-63
2022/12/08 06:41:21;;;;;;;;;;;12.80;93.40;;;;;;5036181;28;20055;-63
2022/12/08 06:43:47;;;;;;;;;;;13.00;93.40;;;;;;5035515;28;19980;-64
2022/12/08 06:46:13;;;;;;;;;;;13.00;93.40;;;;;;5036144;28;20011;-63
2022/12/08 06:48:40;;;;;;;;;;;;;;;;;;5059373;28;20399;-63
2022/12/08 06:51:06;;;;;;;;;;;12.80;93.30;;;;;;5036315;28;20283;-63
2022/12/08 06:53:32;;;;;;;;;;;13.10;93.40;;;;;;5020608;28;19926;-64
2022/12/08 06:55:58;;;;;;;;;;;;;;;;;;5033079;28;20000;-64
2022/12/08 06:58:24;;;;;;;;;;;;;;;;;;5031037;28;19960;-64
2022/12/08 07:00:49;;;;;;;;;;;12.90;93.30;;;;;;5035752;28;19971;-63
2022/12/08 07:03:15;;;;;;;;;;;12.90;93.20;;;;;;5034034;28;19925;-63
2022/12/08 07:05:41;;;;;;;;;;;12.90;93.10;;;;;;5034690;28;19925;-63
2022/12/08 07:08:06;;;;;;;;;;;13.00;93.20;;;;;;5047726;28;19982;-64
2022/12/08 07:10:32;;;;;;;;;;;12.60;93.10;;;;;;5052470;28;19961;-62
2022/12/08 07:12:58;;;;;;;;;;;13.00;93.30;;;;;;5034754;28;20020;-63
2022/12/08 07:15:23;;;;;;;;;;;12.90;93.20;;;;;;5065171;28;19971;-63
2022/12/08 07:17:49;;;;;;;;;;;12.80;93.00;;;;;;5047390;28;19925;-63
2022/12/08 07:20:15;;;;;;;;;;;12.90;93.10;;;;;;5031547;28;19925;-63
2022/12/08 07:22:40;;;;;;;;;;;12.70;93.10;;;;;;5065152;28;19929;-63
2022/12/08 07:25:06;;;;;;;;;;;12.80;93.10;;;;;;5064447;28;19925;-63
2022/12/08 07:27:32;;;;;;;;;;;;;;;;;;5019779;28;20012;-66
2022/12/08 07:29:58;;;;;;;;;;;12.90;93.10;;;;;;5035208;28;19925;-63
2022/12/08 07:32:24;;;;;;;;;;;12.60;93.00;;;;;;5033594;28;19925;-64
2022/12/08 07:34:49;;;;;;;;;;;12.70;93.00;;;;;;5033730;28;19925;-63
2022/12/08 07:37:15;;;;;;;;;;;12.90;93.10;;;;;;5030975;28;19929;-62
2022/12/08 07:39:41;;;;;;;;;;;;;;;;;;5016858;28;19925;-63
2022/12/08 07:42:07;;;;;;;;;;;12.90;93.20;;;;;;5033020;28;19925;-63
2022/12/08 07:44:33;;;;;;;;;;;12.80;93.20;;;;;;5017252;28;20298;-62
2022/12/08 07:46:58;;;;;;;;;;;12.70;93.10;;;;;;5032775;28;19933;-62
2022/12/08 07:49:24;;;;;;;;;;;12.90;93.10;;;;;;5067345;28;20322;-62
2022/12/08 07:51:49;;;;;;;;;;;12.90;93.10;;;;;;5066963;28;19978;-62
2022/12/08 07:54:15;;;;;;;;;;;12.90;93.10;;;;;;5067197;28;20002;-64
2022/12/08 07:56:41;;;;;;;;;;;12.90;92.90;;;;;;5066837;28;19940;-63
2022/12/08 07:59:07;;;;;;;;;;;;;;;;;;5065236;28;19925;-63
2022/12/08 08:01:33;;;;;;;;;;;13.10;92.80;;;;;;5018029;28;20438;-62
2022/12/08 08:04:03;;;;;;;;;;;12.90;92.70;;;;;;4997333;28;19926;-63
2022/12/08 08:06:29;;;;;;;;;;;12.70;92.70;;;;;;5057849;28;20299;-63
2022/12/08 08:08:54;;;;;;;;;;;12.90;92.50;;;;;;5015534;28;19925;-64
2022/12/08 08:11:20;;;;;;;;;;;;;;;;;;5066286;28;19925;-63
2022/12/08 08:13:46;;;;;;;;;;;13.00;92.90;;;;;;5032957;28;19925;-63
2022/12/08 08:16:12;;;;;;;;;;;13.00;92.90;;;;;;5032901;28;19933;-62
2022/12/08 08:18:38;;;;;;;;;;;12.70;92.80;;;;;;5064268;28;19929;-62
2022/12/08 08:21:04;;;;;;;;;;;12.70;92.80;;;;;;5014866;28;19925;-63
2022/12/08 08:23:30;;;;;;;;;;;;;;;;;;5066365;28;19976;-63
2022/12/08 08:25:59;;;;;;;;;;;12.90;92.90;;;;;;5033383;28;19926;-63
2022/12/08 08:28:25;;;;;;;;;;;12.90;92.90;;;;;;5031884;28;19925;-63
2022/12/08 08:30:50;;;;;;;;;;;12.80;92.90;;;;;;5035100;28;19925;-63
2022/12/08 08:33:16;;;;;;;;;;;12.70;92.80;;;;;;5066275;28;19973;-63
2022/12/08 08:35:42;;;;;;;;;;;12.90;92.90;;;;;;5020576;28;19925;-62
2022/12/08 08:38:08;;;;;;;;;;;;;;;;;;5033220;28;19932;-63
2022/12/08 08:40:34;;;;;;;;;;;13.00;92.90;;;;;;5032461;28;19968;-65
2022/12/08 08:43:02;;;;;;;;;;;12.80;92.90;;;;;;5066050;28;19965;-65
2022/12/08 08:45:28;;;;;;;;;;;13.00;92.90;;;;;;5016376;28;19948;-65
2022/12/08 08:47:54;;;;;;;;;;;12.80;92.90;;;;;;5064361;28;19929;-63
2022/12/08 08:50:19;;;;;;;;;;;13.00;92.80;;;;;;5064419;28;19929;-62
2022/12/08 08:52:45;;;;;;;;;;;13.00;92.90;;;;;;5030049;28;20032;-62
2022/12/08 08:55:10;;;;;;;;;;;13.00;92.90;;;;;;5015138;28;19973;-64
2022/12/08 08:57:36;;;;;;;;;;;13.00;92.90;;;;;;5034133;28;19925;-63
2022/12/08 09:00:05;;;;;;;;;;;12.90;92.70;;;;;;5026410;28;19926;-63
2022/12/08 09:02:31;;;;;;;;;;;12.80;92.70;;;;;;5033813;28;19925;-63
2022/12/08 09:04:56;;;;;;;;;;;12.90;92.70;;;;;;5033597;28;20398;-63
2022/12/08 09:07:22;;;;;;;;;;;13.00;92.80;;;;;;5066009;28;19921;-63
2022/12/08 09:09:48;;;;;;;;;;;;;;;;;;5016108;28;19955;-63
2022/12/08 09:12:14;;;;;;;;;;;12.90;92.70;;;;;;5032704;28;19928;-62
2022/12/08 09:14:39;;;;;;;;;;;13.10;92.80;;;;;;5032754;28;19929;-63
2022/12/08 09:17:05;;;;;;;;;;;13.10;92.70;;;;;;5033957;28;19987;-63
2022/12/08 09:19:31;;;;;;;;;;;13.00;92.70;;;;;;5016035;28;20012;-63
2022/12/08 09:21:57;;;;;;;;;;;12.70;92.60;;;;;;5031560;28;20011;-63
2022/12/08 09:24:22;;;;;;;;;;;12.70;92.60;;;;;;5032626;28;19926;-63
2022/12/08 09:26:48;;;;;;;;;;;13.00;92.70;;;;;;5016242;28;19992;-63
2022/12/08 09:29:14;;;;;;;;;;;13.00;92.70;;;;;;4997094;28;19933;-63
2022/12/08 09:31:39;;;;;;;;;;;13.20;92.70;;;;;;5026844;28;20083;-64
2022/12/08 09:34:05;;;;;;;;;;;12.80;92.60;;;;;;5018151;28;19932;-67
2022/12/08 09:36:31;;;;;;;;;;;13.10;92.60;;;;;;5037790;28;19926;-65
2022/12/08 09:38:56;;;;;;;;;;;13.20;92.20;;;;;;5035770;28;19925;-65
2022/12/08 09:41:25;;;;;;;;;;;13.30;92.60;;;;;;5033242;28;20437;-63
2022/12/08 09:43:51;;;;;;;;;;;12.90;92.50;;;;;;5033022;28;20015;-63
2022/12/08 09:46:16;;;;;;;;;;;13.10;92.60;;;;;;5035703;28;20003;-63
2022/12/08 09:48:45;;;;;;;;;;;13.00;92.50;;;;;;5037202;28;19925;-64
2022/12/08 09:51:10;;;;;;;;;;;12.90;92.50;;;;;;5036301;28;20035;-63
2022/12/08 09:53:39;;;;;;;;;;;13.00;92.50;;;;;;5035921;28;20447;-63
2022/12/08 09:56:24;;;;;;;;;;;13.20;92.60;;;;;;5035331;28;19927;-64
2022/12/08 09:58:51;;;;;;;;;;;13.30;92.50;;;;;;5035191;28;19929;-65
2022/12/08 10:01:18;;;;;;;;;;;;;;;;;;5015959;28;19925;-63
2022/12/08 10:03:45;;;;;;;;;;;;;;;;;;5017964;28;19933;-63
2022/12/08 10:06:17;;;;;;;;;;;13.40;92.60;;;;;;5033905;28;20024;-63
2022/12/08 10:08:49;;;;;;;;;;;13.50;92.60;;;;;;5012478;28;19925;-63
2022/12/08 10:11:16;;;;;;;;;;;13.70;92.60;;;;;;5026611;28;20333;-63
2022/12/08 10:13:46;;;;;;;;;;;13.40;92.60;;;;;;5034922;28;20271;-63
2022/12/08 10:16:11;;;;;;;;;;;13.50;92.60;;;;;;5032655;28;19933;-66
2022/12/08 10:18:37;;;;;;;;;;;13.70;92.60;;;;;;5068666;28;19925;-63
2022/12/08 10:21:29;;;;;;;;;;;13.70;92.60;;;;;;5035389;28;20012;-64
2022/12/08 10:23:57;;;;;;;;;;;13.80;92.60;;;;;;5037251;28;19925;-62
2022/12/08 10:26:23;;;;;;;;;;;13.70;92.50;;;;;;5035531;28;19978;-67
2022/12/08 10:28:48;;;;;;;;;;;13.90;92.20;;;;;;5036802;28;20023;-66
2022/12/08 10:31:18;;;;;;;;;;;13.90;92.50;;;;;;5052183;28;20294;-65
2022/12/08 10:33:44;;;;;;;;;;;14.00;92.50;;;;;;5063040;28;20403;-65
2022/12/08 10:36:10;;;;;;;;;;;14.20;92.50;;;;;;5051928;28;19979;-65
2022/12/08 10:38:36;;;;;;;;;;;;;;;;;;5032236;28;19928;-70
2022/12/08 10:41:04;;;;;;;;;;;14.10;92.20;;;;;;5035913;28;19925;-68
2022/12/08 10:43:30;;;;;;;;;;;14.10;92.20;;;;;;5067832;28;19976;-66
2022/12/08 10:46:06;;;;;;;;;;;14.40;92.30;;;;;;5018475;28;19921;-65
2022/12/08 10:48:31;;;;;;;;;;;14.20;92.20;;;;;;5036441;28;19925;-66
2022/12/08 10:50:57;;;;;;;;;;;;;;;;;;5034270;28;19921;-66
2022/12/08 10:53:24;;;;;;;;;;;14.00;92.00;;;;;;5034781;28;19984;-65
2022/12/08 10:55:49;;;;;;;;;;;14.20;92.10;;;;;;5018668;28;20012;-66
2022/12/08 10:58:15;;;;;;;;;;;;;;;;;;5034394;28;20426;-68
2022/12/08 11:00:41;;;;;;;;;;;14.20;91.80;;;;;;5032984;28;20302;-68
2022/12/08 11:03:08;;;;;;;;;;;14.50;91.70;;;;;;5033980;28;19941;-67
2022/12/08 11:05:34;;;;;;;;;;;14.50;91.60;;;;;;5050676;28;19925;-67
2022/12/08 11:08:00;;;;;;;;;;;14.30;91.50;;;;;;5018098;28;19931;-69
2022/12/08 11:10:28;;;;;;;;;;;14.40;91.40;;;;;;5046072;28;19925;-68
2022/12/08 11:12:54;;;;;;;;;;;14.50;91.40;;;;;;5017978;28;19925;-67
2022/12/08 11:15:19;;;;;;;;;;;14.70;91.30;;;;;;5027173;28;19925;-66
2022/12/08 11:17:48;;;;;;;;;;;14.80;91.20;;;;;;5014647;28;19979;-66
2022/12/08 11:20:14;;;;;;;;;;;14.90;91.20;;;;;;5034416;28;19932;-65
2022/12/08 11:22:40;;;;;;;;;;;14.60;91.10;;;;;;5034320;28;19928;-67
2022/12/08 11:25:12;;;;;;;;;;;14.70;91.00;;;;;;5021853;28;19925;-66
2022/12/08 11:27:38;;;;;;;;;;;14.80;90.90;;;;;;5021314;28;19925;-67
2022/12/08 11:30:20;;;;;;;;;;;15.00;90.90;;;;;;5036173;28;19987;-65
2022/12/08 11:32:47;;;;;;;;;;;14.90;90.70;;;;;;5034627;28;20323;-69
2022/12/08 11:35:18;;;;;;;;;;;14.80;90.60;;;;;;5033941;28;19980;-65
2022/12/08 11:37:43;;;;;;;;;;;14.70;90.60;;;;;;5029411;28;20302;-67
2022/12/08 11:40:09;;;;;;;;;;;;;;;;;;4997318;28;20008;-67
2022/12/08 11:42:35;;;;;;;;;;;;;;;;;;5023415;28;20390;-66
2022/12/08 11:45:10;;;;;;;;;;;15.10;90.80;;;;;;5031580;28;19925;-66
2022/12/08 11:47:39;;;;;;;;;;;15.50;90.90;;;;;;5049478;28;19932;-66
2022/12/08 11:50:16;;;;;;;;;;;15.00;90.80;;;;;;5065363;28;19925;-66
2022/12/08 11:52:44;;;;;;;;;;;15.20;90.90;;;;;;5033991;28;20271;-65
2022/12/08 11:55:25;;;;;;;;;;;15.40;91.00;;;;;;5066700;28;20425;-66
2022/12/08 11:57:50;;;;;;;;;;;15.00;91.00;;;;;;5065626;28;20307;-65
2022/12/08 12:00:16;;;;;;;;;;;15.20;91.00;;;;;;5017839;28;19925;-66
2022/12/08 12:02:47;;;;;;;;;;;15.30;91.10;;;;;;5034775;28;19979;-66
2022/12/08 12:05:28;;;;;;;;;;;15.10;91.10;;;;;;5066487;28;20386;-66
2022/12/08 12:07:57;;;;;;;;;;;15.10;91.10;;;;;;5066677;28;19931;-65
2022/12/08 12:10:41;;;;;;;;;;;15.20;91.10;;;;;;5015551;28;20341;-65
2022/12/08 12:13:25;;;;;;;;;;;15.00;91.10;;;;;;5034813;28;20023;-66
2022/12/08 12:16:06;;;;;;;;;;;15.10;91.10;;;;;;5024874;28;20008;-66
2022/12/08 12:18:37;;;;;;;;;;;15.30;91.20;;;;;;5028119;28;19933;-65
2022/12/08 12:21:03;;;;;;;;;;;15.30;91.10;;;;;;5066671;28;19925;-65
2022/12/08 12:23:31;;;;;;;;;;;15.00;91.10;;;;;;5033087;28;19932;-65
2022/12/08 12:25:58;;;;;;;;;;;15.30;91.20;;;;;;5033108;28;20401;-67
2022/12/08 12:28:24;;;;;;;;;;;14.90;91.20;;;;;;5049588;28;19929;-66
2022/12/08 12:30:57;;;;;;;;;;;15.10;91.10;;;;;;5031644;28;19929;-65
2022/12/08 12:33:23;;;;;;;;;;;15.00;91.20;;;;;;5057755;28;20028;-65
2022/12/08 12:35:49;;;;;;;;;;;15.10;91.30;;;;;;5015175;28;19968;-66
2022/12/08 12:41:02;;;;;;;;;;;14.90;91.30;;;;;;5033705;28;19925;-68
2022/12/08 12:43:29;;;;;;;;;;;15.00;91.30;;;;;;5016392;28;20303;-67
2022/12/08 12:46:13;;;;;;;;;;;14.90;91.30;;;;;;5066350;28;20007;-68
2022/12/08 12:48:39;;;;;;;;;;;;;;;;;;5031740;28;19972;-67
2022/12/08 12:51:25;;;;;;;;;;;14.80;91.20;;;;;;5032329;28;19976;-67
2022/12/08 12:53:51;;;;;;;;;;;15.00;91.30;;;;;;5033668;28;20287;-66
2022/12/08 12:56:35;;;;;;;;;;;14.90;91.30;;;;;;5033036;28;19932;-66
2022/12/08 12:59:17;;;;;;;;;;;14.70;91.30;;;;;;5065852;28;19925;-66
2022/12/08 13:01:43;;;;;;;;;;;;;;;;;;5048554;28;19951;-66
2022/12/08 13:04:11;;;;;;;;;;;;;;;;;;5033792;28;20015;-68
2022/12/08 13:06:38;;;;;;;;;;;14.90;91.30;;;;;;5026213;28;19925;-67
2022/12/08 13:09:03;;;;;;;;;;;14.50;91.30;;;;;;5013129;28;19929;-68
2022/12/08 13:11:29;;;;;;;;;;;14.80;91.40;;;;;;5026570;28;19935;-66
2022/12/08 13:13:55;;;;;;;;;;;;;;;;;;5015120;28;20309;-66
2022/12/08 13:16:22;;;;;;;;;;;14.60;91.40;;;;;;5032737;28;19925;-67
2022/12/08 13:18:48;;;;;;;;;;;14.60;91.40;;;;;;5063701;28;19999;-69
2022/12/08 13:21:20;;;;;;;;;;;14.70;91.40;;;;;;5015956;28;19925;-67
2022/12/08 13:23:47;;;;;;;;;;;14.40;91.30;;;;;;5023395;28;19929;-66
2022/12/08 13:26:19;;;;;;;;;;;14.80;91.50;;;;;;5014155;28;19925;-67
2022/12/08 13:29:03;;;;;;;;;;;14.70;91.50;;;;;;5054729;28;20352;-68
2022/12/08 13:31:39;;;;;;;;;;;14.50;91.50;;;;;;5061741;28;19925;-66
2022/12/08 13:34:25;;;;;;;;;;;14.70;91.60;;;;;;5048755;28;19973;-67
2022/12/08 13:36:54;;;;;;;;;;;14.70;91.70;;;;;;5035191;28;20389;-65
2022/12/08 13:39:28;;;;;;;;;;;14.60;91.60;;;;;;5047319;28;20347;-65
2022/12/08 13:42:05;;;;;;;;;;;14.60;91.60;;;;;;5014676;28;19924;-63
2022/12/08 13:44:49;;;;;;;;;;;14.60;91.60;;;;;;5048206;28;19998;-65
2022/12/08 13:47:16;;;;;;;;;;;14.50;91.70;;;;;;5065767;28;20338;-65
2022/12/08 13:49:53;;;;;;;;;;;14.70;91.70;;;;;;5015306;28;19980;-64
2022/12/08 13:52:40;;;;;;;;;;;14.80;91.70;;;;;;5016040;28;19957;-64
2022/12/08 13:55:12;;;;;;;;;;;14.80;91.80;;;;;;5048966;28;20348;-64
2022/12/08 13:57:38;;;;;;;;;;;14.40;91.70;;;;;;5048928;28;20088;-64
2022/12/08 14:00:05;;;;;;;;;;;14.50;91.70;;;;;;5013651;28;20422;-65
2022/12/08 14:02:38;;;;;;;;;;;14.20;91.60;;;;;;5014571;28;19933;-65
2022/12/08 14:05:03;;;;;;;;;;;14.60;91.70;;;;;;5026988;28;20011;-64
2022/12/08 14:07:30;;;;;;;;;;;14.50;91.70;;;;;;5048164;28;19929;-65
2022/12/08 14:09:58;;;;;;;;;;;14.30;91.50;;;;;;5048805;28;19928;-65
2022/12/08 14:12:24;;;;;;;;;;;14.50;91.80;;;;;;5016085;28;19924;-65
2022/12/08 14:15:00;;;;;;;;;;;14.10;91.70;;;;;;5014922;28;19929;-65
2022/12/08 14:17:25;;;;;;;;;;;14.50;91.80;;;;;;5028840;28;20303;-66
2022/12/08 14:19:55;;;;;;;;;;;14.10;91.70;;;;;;5033154;28;19925;-66
2022/12/08 14:22:21;;;;;;;;;;;14.40;91.90;;;;;;5036738;28;20456;-65
2022/12/08 14:24:47;;;;;;;;;;;14.30;91.80;;;;;;5068657;28;19972;-68
2022/12/08 14:27:13;;;;;;;;;;;;;;;;;;5036844;28;20260;-65
2022/12/08 14:29:40;;;;;;;;;;;14.20;91.80;;;;;;5035523;28;19932;-66
2022/12/08 14:32:25;;;;;;;;;;;14.10;91.90;;;;;;5024968;28;19925;-65
2022/12/08 14:34:55;;;;;;;;;;;14.10;91.90;;;;;;5025363;28;19933;-65
2022/12/08 14:37:21;;;;;;;;;;;13.80;91.80;;;;;;5067649;28;19925;-66
2022/12/08 14:39:46;;;;;;;;;;;14.40;91.90;;;;;;5033069;28;19925;-65